Time;durP1;ratioP1;P1;durP2;ratioP2;P2;SDS_P1;SDS_P2;PMS_P1;PMS_P2;Temp;Humidity;BMP_temperature;BMP_pressure;BME280_temperature;BME280_humidity;BME280_pressure;Samples;Min_cycle;Max_cycle;Signal;HPM_P1;HPM_P2
2022/09/07 04:31:23;;;;;;;21.55;6.28;;;15.10;82.00;;;;;;5031087;28;20040;-72
2022/09/07 04:33:51;;;;;;;21.70;5.97;;;15.10;82.00;;;;;;5031083;28;20037;-71
2022/09/07 04:36:19;;;;;;;13.98;4.60;;;15.10;81.80;;;;;;5027998;28;20091;-71
2022/09/07 04:38:46;;;;;;;14.93;3.22;;;15.10;81.60;;;;;;5026364;28;20025;-70
2022/09/07 04:41:16;;;;;;;13.15;4.68;;;15.00;81.30;;;;;;5028661;28;20033;-68
2022/09/07 04:43:42;;;;;;;14.75;4.05;;;15.10;81.30;;;;;;5032690;28;20021;-69
2022/09/07 04:46:27;;;;;;;10.75;3.13;;;15.00;81.20;;;;;;5035294;28;20116;-68
2022/09/07 04:48:56;;;;;;;10.23;3.97;;;15.00;81.20;;;;;;5027719;28;20052;-69
2022/09/07 04:51:25;;;;;;;8.52;3.17;;;15.00;81.10;;;;;;5028408;28;20034;-70
2022/09/07 04:53:54;;;;;;;12.07;2.95;;;15.00;81.20;;;;;;5030807;28;20021;-69
2022/09/07 04:56:21;;;;;;;10.73;3.28;;;15.00;81.30;;;;;;5030648;28;20022;-69
2022/09/07 04:58:48;;;;;;;8.18;2.22;;;15.00;81.30;;;;;;5030074;28;20112;-68
2022/09/07 05:01:18;;;;;;;11.45;3.40;;;15.00;81.30;;;;;;5028552;28;20037;-69
2022/09/07 05:03:45;;;;;;;11.60;4.30;;;15.00;81.20;;;;;;5033884;28;20037;-69
2022/09/07 05:06:12;;;;;;;13.13;2.53;;;15.00;81.20;;;;;;5032307;28;20042;-69
2022/09/07 05:08:48;;;;;;;8.32;3.50;;;15.00;81.00;;;;;;5025471;28;20420;-69
2022/09/07 05:11:15;;;;;;;7.03;2.50;;;15.00;81.00;;;;;;5036510;28;20473;-69
2022/09/07 05:13:42;;;;;;;11.77;3.25;;;15.00;80.90;;;;;;5033462;28;20053;-69
2022/09/07 05:16:20;;;;;;;10.75;3.33;;;15.00;80.90;;;;;;5027143;28;20022;-68
2022/09/07 05:18:55;;;;;;;15.43;4.03;;;15.00;80.90;;;;;;5035330;28;20033;-69
2022/09/07 05:21:24;;;;;;;11.20;3.90;;;14.90;81.10;;;;;;5033063;28;20021;-69
2022/09/07 05:23:52;;;;;;;13.13;2.90;;;15.00;81.20;;;;;;5036952;28;20061;-68
2022/09/07 05:26:20;;;;;;;10.00;3.85;;;14.90;81.20;;;;;;5032432;28;20038;-68
2022/09/07 05:28:48;;;;;;;11.50;3.60;;;14.90;81.30;;;;;;5036615;28;20472;-69
2022/09/07 05:31:16;;;;;;;9.25;3.30;;;14.90;81.40;;;;;;5032661;28;20637;-69
2022/09/07 05:33:52;;;;;;;13.93;3.28;;;14.90;81.40;;;;;;5037044;28;20102;-68
2022/09/07 05:36:19;;;;;;;9.70;3.17;;;14.90;81.50;;;;;;5031836;28;20198;-68
2022/09/07 05:38:46;;;;;;;9.52;3.88;;;14.90;81.60;;;;;;5036459;28;20029;-70
2022/09/07 05:41:16;;;;;;;17.02;5.60;;;14.90;81.70;;;;;;5029827;28;20477;-69
2022/09/07 05:43:43;;;;;;;13.80;3.58;;;15.00;81.80;;;;;;5035665;28;20022;-68
2022/09/07 05:46:10;;;;;;;12.68;3.97;;;14.90;81.90;;;;;;5037811;28;20087;-69
2022/09/07 05:48:37;;;;;;;18.20;4.00;;;15.00;82.00;;;;;;5037174;28;20044;-69
2022/09/07 05:51:04;;;;;;;12.15;5.05;;;15.00;82.30;;;;;;5032040;28;20455;-68
2022/09/07 05:53:34;;;;;;;14.68;3.33;;;14.90;82.30;;;;;;5033179;28;20036;-67
2022/09/07 05:56:01;;;;;;;15.82;4.25;;;14.90;82.40;;;;;;5040604;28;20366;-68
2022/09/07 05:58:28;;;;;;;13.52;3.95;;;14.90;82.50;;;;;;5037425;28;20512;-68
2022/09/07 06:01:06;;;;;;;11.30;3.38;;;15.00;82.70;;;;;;5029634;28;20026;-68
2022/09/07 06:03:37;;;;;;;19.40;3.78;;;15.00;82.90;;;;;;5037591;28;20025;-67
2022/09/07 06:06:06;;;;;;;12.65;3.83;;;15.00;83.20;;;;;;5029509;28;20045;-68
2022/09/07 08:22:13;;;;;;;8.63;2.28;;;16.10;84.10;;;;;;5084479;27;20486;-68
2022/09/07 08:24:40;;;;;;;5.00;2.08;;;16.60;81.90;;;;;;5087223;28;20051;-68
2022/09/07 08:27:06;;;;;;;8.18;2.00;;;16.70;80.50;;;;;;5085290;28;20017;-68
2022/09/07 08:29:33;;;;;;;6.25;1.77;;;16.80;79.90;;;;;;5087045;28;20016;-68
2022/09/07 08:31:59;;;;;;;5.95;2.25;;;16.90;79.50;;;;;;5084815;28;20122;-68
2022/09/07 08:34:26;;;;;;;6.50;2.08;;;17.00;79.50;;;;;;5086546;28;20493;-68
2022/09/07 08:36:53;;;;;;;6.18;2.55;;;17.10;79.10;;;;;;5086601;28;20032;-68
2022/09/07 08:39:20;;;;;;;8.70;2.30;;;17.20;78.50;;;;;;5086388;28;21003;-69
2022/09/07 08:41:58;;;;;;;8.13;1.85;;;17.30;78.10;;;;;;5086656;28;20020;-68
2022/09/07 08:44:28;;;;;;;14.93;4.03;;;17.30;77.60;;;;;;5087135;28;20019;-68
2022/09/07 08:47:20;;;;;;;9.88;2.25;;;17.40;77.60;;;;;;5086401;28;20482;-68
2022/09/07 08:50:05;;;;;;;7.28;2.13;;;17.50;77.50;;;;;;5083575;28;20391;-69
2022/09/07 08:52:59;;;;;;;4.82;2.28;;;17.50;77.30;;;;;;5086029;28;20036;-69
2022/09/07 08:55:30;;;;;;;9.13;2.25;;;17.50;76.40;;;;;;5088508;28;20063;-70
2022/09/07 08:58:20;;;;;;;7.07;1.83;;;17.60;75.90;;;;;;5077927;28;20138;-70
2022/09/07 09:00:48;;;;;;;9.20;2.03;;;17.60;75.90;;;;;;5084968;28;20023;-70
2022/09/07 09:03:33;;;;;;;4.05;1.75;;;17.60;75.70;;;;;;5082112;28;20374;-71
2022/09/07 09:06:03;;;;;;;7.35;2.55;;;17.70;75.50;;;;;;5085825;28;20383;-70
2022/09/07 09:08:51;;;;;;;9.90;2.35;;;17.80;75.20;;;;;;5089910;28;20103;-68
2022/09/07 09:11:20;;;;;;;6.70;2.97;;;17.80;74.90;;;;;;5081102;28;20036;-70
2022/09/07 09:14:16;;;;;;;8.82;2.28;;;17.90;74.30;;;;;;5085856;28;20031;-68
2022/09/07 09:17:24;;;;;;;6.63;2.20;;;18.00;74.40;;;;;;5075759;28;20032;-70
2022/09/07 09:20:20;;;;;;;8.15;1.88;;;18.00;74.50;;;;;;5036010;28;20110;-68
2022/09/07 09:22:46;;;;;;;;;;;18.10;74.20;;;;;;5073359;28;20031;-70
2022/09/07 09:25:21;;;;;;;7.38;1.70;;;18.10;73.90;;;;;;5076066;28;19908;-70
2022/09/07 09:27:49;;;;;;;11.07;2.30;;;18.20;73.80;;;;;;5070308;28;20471;-70
2022/09/07 09:30:21;;;;;;;11.45;2.17;;;18.20;72.80;;;;;;5072266;28;20402;-70
2022/09/07 09:32:51;;;;;;;6.57;2.65;;;18.30;72.80;;;;;;5074089;28;20024;-70
2022/09/07 09:35:24;;;;;;;7.43;2.47;;;18.30;72.50;;;;;;5071547;28;20060;-70
2022/09/07 09:37:50;;;;;;;7.95;2.03;;;18.40;71.70;;;;;;5069759;28;20391;-70
2022/09/07 09:40:24;;;;;;;11.85;2.92;;;18.40;72.00;;;;;;5073947;28;20043;-70
2022/09/07 09:43:20;;;;;;;6.28;2.50;;;18.50;71.90;;;;;;5071801;28;20566;-70
2022/09/07 09:45:57;;;;;;;;;;;18.60;71.70;;;;;;5068944;28;20036;-70
2022/09/07 09:48:34;;;;;;;6.22;2.47;;;18.60;71.50;;;;;;5073319;28;19908;-70
2022/09/07 09:51:02;;;;;;;8.38;2.42;;;18.70;71.70;;;;;;5073089;28;20051;-70
2022/09/07 09:53:36;;;;;;;5.45;2.15;;;18.80;71.60;;;;;;5072054;28;20020;-70
2022/09/07 09:56:04;;;;;;;4.77;1.77;;;18.80;72.00;;;;;;5072276;28;20021;-70
2022/09/07 09:58:37;;;;;;;9.25;2.22;;;18.90;71.00;;;;;;5072592;28;20107;-71
2022/09/07 10:01:06;;;;;;;5.10;2.17;;;18.90;71.00;;;;;;5079958;28;20440;-70
2022/09/07 10:03:33;;;;;;;11.95;2.25;;;18.90;70.80;;;;;;5070221;28;20031;-71
2022/09/07 10:06:06;;;;;;;11.18;3.10;;;19.00;70.00;;;;;;5071436;28;20158;-70
2022/09/07 10:08:35;;;;;;;8.35;2.63;;;19.00;69.90;;;;;;5071285;28;20032;-71
2022/09/07 10:11:08;;;;;;;5.38;2.05;;;19.00;69.20;;;;;;5072286;28;20037;-71
2022/09/07 10:13:58;;;;;;;9.77;3.33;;;19.00;69.70;;;;;;5070520;28;20056;-70
2022/09/07 10:16:43;;;;;;;7.63;2.60;;;19.10;67.70;;;;;;5070659;28;20029;-70
2022/09/07 10:19:31;;;;;;;6.68;2.10;;;19.10;67.00;;;;;;5071178;28;20016;-70
2022/09/07 10:22:00;;;;;;;7.38;3.28;;;19.20;67.00;;;;;;5071960;28;20040;-70
2022/09/07 10:24:31;;;;;;;6.43;2.47;;;19.20;67.40;;;;;;5071202;28;20017;-70
2022/09/07 10:26:58;;;;;;;7.53;2.10;;;19.30;67.50;;;;;;5073719;28;20471;-71
2022/09/07 10:29:34;;;;;;;5.53;2.40;;;19.40;67.90;;;;;;5072337;28;20562;-70
2022/09/07 10:32:06;;;;;;;11.80;2.40;;;19.40;68.00;;;;;;5074283;28;20035;-69
2022/09/07 10:34:46;;;;;;;4.45;1.98;;;19.50;66.70;;;;;;5071482;28;20063;-70
2022/09/07 10:37:41;;;;;;;4.22;1.60;;;19.50;67.10;;;;;;5071119;28;20028;-70
2022/09/07 10:40:20;;;;;;;10.75;1.85;;;19.50;67.20;;;;;;5052283;28;20036;-70
2022/09/07 10:43:07;;;;;;;5.00;1.85;;;19.60;67.20;;;;;;5069407;28;20021;-71
2022/09/07 10:45:36;;;;;;;5.03;1.83;;;19.70;66.80;;;;;;5069733;28;20013;-70
2022/09/07 10:48:28;;;;;;;6.38;2.13;;;19.80;66.70;;;;;;5073309;28;20032;-70
2022/09/07 10:51:02;;;;;;;6.72;1.63;;;19.80;66.70;;;;;;5068173;28;20041;-70
2022/09/07 10:54:12;;;;;;;7.20;4.03;;;19.90;66.70;;;;;;5071458;28;20025;-70
2022/09/07 10:56:56;;;;;;;3.72;1.67;;;19.90;67.30;;;;;;5070951;28;20120;-71
2022/09/07 10:59:38;;;;;;;6.05;2.35;;;20.00;67.50;;;;;;5070080;28;20024;-71
2022/09/07 11:02:29;;;;;;;6.38;1.95;;;20.10;67.20;;;;;;5070606;28;20020;-70
2022/09/07 11:05:14;;;;;;;5.85;1.65;;;20.10;67.50;;;;;;5071601;28;20024;-71
2022/09/07 11:08:02;;;;;;;7.88;2.72;;;20.20;67.60;;;;;;5070223;28;20020;-71
2022/09/07 11:10:40;;;;;;;9.32;1.80;;;20.30;67.00;;;;;;5068411;28;20475;-71
2022/09/07 11:13:11;;;;;;;10.00;2.35;;;20.30;66.90;;;;;;5059157;28;20146;-71
2022/09/07 11:15:41;;;;;;;6.97;2.80;;;20.40;66.80;;;;;;5069529;28;20031;-70
2022/09/07 11:18:48;;;;;;;5.88;2.35;;;20.40;66.00;;;;;;5069853;28;20021;-70
2022/09/07 11:21:18;;;;;;;7.32;1.95;;;20.40;65.40;;;;;;5021277;28;20056;-70
2022/09/07 11:24:02;;;;;;;6.45;2.10;;;20.50;65.70;;;;;;5068780;28;20096;-70
2022/09/07 11:26:40;;;;;;;8.18;1.92;;;20.50;66.50;;;;;;5070010;28;20090;-70
2022/09/07 11:29:15;;;;;;;10.32;2.90;;;20.60;65.90;;;;;;5067906;28;20485;-71
2022/09/07 11:31:44;;;;;;;;;;;20.60;66.30;;;;;;5069327;28;20108;-71
2022/09/07 11:34:46;;;;;;;4.55;1.83;;;20.60;66.50;;;;;;5070337;28;20351;-70
2022/09/07 11:37:23;;;;;;;9.20;2.83;;;20.70;66.30;;;;;;5067766;28;20024;-70
2022/09/07 11:40:15;;;;;;;9.60;2.80;;;20.70;66.10;;;;;;5069523;28;20020;-70
2022/09/07 11:42:58;;;;;;;4.47;1.88;;;20.80;66.10;;;;;;5069458;28;20027;-70
2022/09/07 11:45:51;;;;;;;4.18;2.05;;;20.80;65.90;;;;;;5070384;28;20013;-70
2022/09/07 11:48:40;;;;;;;6.05;1.80;;;20.90;65.90;;;;;;5067859;28;20032;-71
2022/09/07 11:51:22;;;;;;;6.22;2.05;;;20.90;65.60;;;;;;5072726;28;20526;-71
2022/09/07 11:54:01;;;;;;;5.93;2.30;;;21.00;65.50;;;;;;5071762;28;20107;-70
2022/09/07 11:56:36;;;;;;;15.45;2.60;;;21.00;65.60;;;;;;5070432;28;20107;-71
2022/09/07 11:59:23;;;;;;;10.70;2.05;;;21.00;65.60;;;;;;5068668;28;20017;-70
2022/09/07 12:01:56;;;;;;;4.28;1.77;;;21.10;65.50;;;;;;5070776;28;20025;-70
2022/09/07 12:04:46;;;;;;;5.10;1.80;;;21.10;65.20;;;;;;5070226;28;20024;-71
2022/09/07 12:07:16;;;;;;;6.30;1.65;;;21.20;64.50;;;;;;5070805;28;20512;-71
2022/09/07 12:10:00;;;;;;;5.50;1.50;;;21.20;64.30;;;;;;5071913;28;20041;-71
2022/09/07 12:12:48;;;;;;;5.07;1.42;;;21.20;64.10;;;;;;5068518;28;20027;-71
2022/09/07 12:15:36;;;;;;;6.97;3.45;;;21.20;63.70;;;;;;5069972;28;20028;-71
2022/09/07 12:18:17;;;;;;;7.28;2.67;;;21.20;63.60;;;;;;5068830;28;20031;-70
2022/09/07 12:20:46;;;;;;;7.82;2.30;;;21.20;63.60;;;;;;5068429;28;20041;-71
2022/09/07 12:23:15;;;;;;;5.55;1.85;;;21.20;63.80;;;;;;5070175;28;20037;-70
2022/09/07 12:25:47;;;;;;;6.70;1.67;;;21.20;63.80;;;;;;5069761;28;20020;-71
2022/09/07 12:28:34;;;;;;;6.50;2.60;;;21.20;63.60;;;;;;5071044;28;20031;-70
2022/09/07 12:31:03;;;;;;;5.93;2.08;;;21.30;64.00;;;;;;5039430;28;20041;-71
2022/09/07 12:33:39;;;;;;;6.78;2.20;;;21.30;64.40;;;;;;5071390;28;20021;-71
2022/09/07 12:36:24;;;;;;;7.70;2.30;;;21.30;64.60;;;;;;5069300;28;20025;-71
2022/09/07 12:39:05;;;;;;;6.88;2.03;;;21.40;64.80;;;;;;5069465;28;20020;-70
2022/09/07 12:41:44;;;;;;;8.18;1.88;;;21.30;64.70;;;;;;5070544;28;20036;-71
2022/09/07 12:44:31;;;;;;;6.68;2.13;;;21.40;65.20;;;;;;5071807;28;20013;-71
2022/09/07 12:47:22;;;;;;;7.20;2.63;;;21.30;65.70;;;;;;5067723;28;20403;-70
2022/09/07 12:50:31;;;;;;;4.70;1.58;;;21.30;65.40;;;;;;5067553;28;20047;-70
2022/09/07 12:53:12;;;;;;;7.18;2.22;;;21.30;65.70;;;;;;4985943;28;20481;-70
2022/09/07 12:55:57;;;;;;;13.70;4.05;;;21.30;66.10;;;;;;5060968;28;20047;-70
2022/09/07 12:58:43;;;;;;;16.95;2.97;;;21.30;66.20;;;;;;5073891;28;20037;-71
2022/09/07 13:01:19;;;;;;;7.95;2.13;;;21.30;66.20;;;;;;5072847;28;20112;-71
2022/09/07 13:04:08;;;;;;;5.32;1.63;;;21.40;66.30;;;;;;5071748;28;20379;-71
2022/09/07 13:07:08;;;;;;;10.45;2.70;;;21.40;66.30;;;;;;5073377;28;20028;-71
2022/09/07 13:09:40;;;;;;;13.73;2.58;;;21.40;66.60;;;;;;5071143;28;20121;-70
2022/09/07 13:12:37;;;;;;;6.65;2.65;;;21.40;66.70;;;;;;5073511;28;20025;-71
2022/09/07 13:15:04;;;;;;;11.57;3.17;;;21.40;66.70;;;;;;5071793;28;20021;-71
2022/09/07 13:17:35;;;;;;;8.90;2.75;;;21.40;66.80;;;;;;5070895;28;20012;-71
2022/09/07 13:20:01;;;;;;;12.18;4.07;;;21.40;66.80;;;;;;5073186;28;20032;-71
2022/09/07 13:22:30;;;;;;;13.98;3.08;;;21.40;66.80;;;;;;5073150;28;20021;-71
2022/09/07 13:24:59;;;;;;;9.43;2.75;;;21.40;67.10;;;;;;5071971;28;20032;-70
2022/09/07 13:27:34;;;;;;;9.52;4.70;;;21.40;67.20;;;;;;5071004;28;20024;-71
2022/09/07 13:30:16;;;;;;;5.95;2.83;;;21.40;67.20;;;;;;5072625;28;20037;-71
2022/09/07 13:32:43;;;;;;;9.35;2.55;;;21.30;67.20;;;;;;5071995;28;20028;-71
2022/09/07 13:35:26;;;;;;;8.25;2.72;;;21.30;67.20;;;;;;5070311;28;20403;-71
2022/09/07 13:37:52;;;;;;;9.13;2.38;;;21.30;67.30;;;;;;5072907;28;20028;-71
2022/09/07 13:40:29;;;;;;;10.88;2.45;;;21.30;67.20;;;;;;5070780;28;20402;-71
2022/09/07 13:42:58;;;;;;;5.22;2.28;;;21.30;67.20;;;;;;5072014;28;20069;-71
2022/09/07 13:45:53;;;;;;;7.35;2.00;;;21.20;67.00;;;;;;5073426;28;20115;-71
2022/09/07 13:48:28;;;;;;;11.32;2.33;;;21.20;67.00;;;;;;5050714;28;20036;-71
2022/09/07 13:51:02;;;;;;;14.55;3.47;;;21.30;67.10;;;;;;5074918;28;20036;-71
2022/09/07 13:53:45;;;;;;;5.88;2.50;;;21.20;67.10;;;;;;5073990;28;20468;-71
2022/09/07 13:56:36;;;;;;;11.23;2.47;;;21.20;67.40;;;;;;5076779;28;20020;-71
2022/09/07 13:59:17;;;;;;;10.85;2.67;;;21.20;67.40;;;;;;5071401;28;20101;-71
2022/09/07 14:01:47;;;;;;;11.32;2.50;;;21.20;67.40;;;;;;5068891;28;20471;-71
2022/09/07 14:04:26;;;;;;;11.90;3.28;;;21.20;67.90;;;;;;5072724;28;20020;-71
2022/09/07 14:07:06;;;;;;;9.52;3.10;;;21.20;68.30;;;;;;5072364;28;20025;-71
2022/09/07 14:09:33;;;;;;;8.98;3.08;;;21.20;68.30;;;;;;5070880;28;20037;-71
2022/09/07 14:12:00;;;;;;;13.73;3.70;;;21.20;68.60;;;;;;5070410;28;20020;-71
2022/09/07 14:14:32;;;;;;;12.68;3.15;;;21.20;68.70;;;;;;5070725;28;20039;-71
2022/09/07 14:17:11;;;;;;;10.77;2.80;;;21.20;68.50;;;;;;5072870;28;20029;-71
2022/09/07 14:19:46;;;;;;;17.15;5.13;;;21.20;68.40;;;;;;5071701;28;20077;-71
2022/09/07 14:22:22;;;;;;;7.03;2.63;;;21.20;69.10;;;;;;5068915;28;20041;-69
2022/09/07 14:24:52;;;;;;;9.13;3.83;;;21.20;69.60;;;;;;5070309;28;20020;-69
2022/09/07 14:27:24;;;;;;;10.20;3.90;;;21.20;70.10;;;;;;5068516;28;20055;-69
2022/09/07 14:29:51;;;;;;;27.08;9.32;;;21.20;71.00;;;;;;5070692;28;20077;-69
2022/09/07 14:32:23;;;;;;;30.10;12.32;;;21.20;70.40;;;;;;5069188;28;20099;-70
2022/09/07 14:34:51;;;;;;;21.30;8.68;;;21.20;70.20;;;;;;5075406;28;20036;-70
2022/09/07 14:37:20;;;;;;;19.38;6.43;;;21.10;69.90;;;;;;5070124;28;20486;-68
2022/09/07 14:39:49;;;;;;;13.02;5.20;;;21.00;70.00;;;;;;5072118;28;20115;-69
2022/09/07 14:42:22;;;;;;;27.40;4.68;;;21.00;70.20;;;;;;5068713;28;20028;-69
2022/09/07 14:44:49;;;;;;;12.15;3.25;;;21.00;70.90;;;;;;5064560;28;21223;-68
2022/09/07 14:47:31;;;;;;;15.85;4.53;;;20.90;71.30;;;;;;5068854;28;20107;-69
2022/09/07 14:50:04;;;;;;;34.38;5.50;;;20.90;71.70;;;;;;5070867;28;20056;-69
2022/09/07 14:52:39;;;;;;;31.95;5.80;;;20.90;71.60;;;;;;5070736;28;20073;-71
2022/09/07 14:55:21;;;;;;;18.70;3.47;;;20.90;71.80;;;;;;5067928;28;20048;-69
2022/09/07 14:57:48;;;;;;;16.83;3.53;;;20.80;71.60;;;;;;5072586;28;20029;-70
2022/09/07 15:00:30;;;;;;;12.27;3.90;;;20.80;71.80;;;;;;5075829;28;20032;-70
2022/09/07 15:02:57;;;;;;;10.77;3.40;;;20.70;72.10;;;;;;5074004;28;20055;-69
2022/09/07 15:05:26;;;;;;;13.77;3.40;;;20.70;72.50;;;;;;5069794;28;20020;-70
2022/09/07 15:07:58;;;;;;;17.85;5.43;;;20.60;72.40;;;;;;5068356;28;20017;-70
2022/09/07 15:10:39;;;;;;;18.10;4.82;;;20.60;72.60;;;;;;5070349;28;20043;-70
2022/09/07 15:13:22;;;;;;;15.65;5.25;;;20.60;73.20;;;;;;5069066;28;21534;-72
2022/09/07 15:16:01;;;;;;;11.93;3.40;;;20.50;73.30;;;;;;5067532;28;20036;-72
2022/09/07 15:18:43;;;;;;;12.88;3.22;;;20.50;73.60;;;;;;5068966;28;20517;-70
2022/09/07 15:21:09;;;;;;;12.00;3.53;;;20.50;73.70;;;;;;5070741;28;20044;-70
2022/09/07 15:23:36;;;;;;;16.10;5.05;;;20.50;74.00;;;;;;5065558;28;20039;-70
2022/09/07 15:26:02;;;;;;;14.20;3.17;;;20.50;74.10;;;;;;5068953;28;20085;-71
2022/09/07 15:28:33;;;;;;;15.90;5.25;;;20.40;74.20;;;;;;5068273;28;20028;-70
2022/09/07 15:30:59;;;;;;;14.00;3.25;;;20.40;74.50;;;;;;5070817;28;20035;-70
2022/09/07 15:33:26;;;;;;;20.17;4.50;;;20.40;74.80;;;;;;5070912;28;20017;-70
2022/09/07 15:35:53;;;;;;;8.18;4.13;;;20.30;74.90;;;;;;5071633;28;20040;-72
2022/09/07 15:38:21;;;;;;;19.63;11.02;;;20.30;75.10;;;;;;5069455;28;20509;-70
2022/09/07 15:40:55;;;;;;;25.77;14.65;;;20.30;75.10;;;;;;5069043;28;20039;-70
2022/09/07 15:43:22;;;;;;;16.75;7.00;;;20.20;75.10;;;;;;5070109;28;20062;-70
2022/09/07 15:45:49;;;;;;;16.65;5.25;;;20.20;75.10;;;;;;5067414;28;20123;-73
2022/09/07 15:48:20;;;;;;;13.77;3.60;;;20.20;75.20;;;;;;5070748;28;20056;-71
2022/09/07 15:50:48;;;;;;;15.52;3.38;;;20.10;75.30;;;;;;5070095;28;20028;-73
2022/09/07 15:53:16;;;;;;;20.00;4.18;;;20.10;75.60;;;;;;5069484;28;20471;-76
2022/09/07 15:55:43;;;;;;;17.00;3.33;;;20.10;76.00;;;;;;5066042;28;20032;-74
2022/09/07 15:58:11;;;;;;;14.00;3.75;;;20.00;76.20;;;;;;5066543;28;20104;-69
2022/09/07 16:00:38;;;;;;;16.92;4.68;;;20.00;76.40;;;;;;5069128;28;20467;-73
2022/09/07 16:03:04;;;;;;;12.18;3.53;;;20.00;76.40;;;;;;5068895;28;20020;-70
2022/09/07 16:05:32;;;;;;;8.95;2.60;;;19.90;76.40;;;;;;5073763;28;20027;-72
2022/09/07 16:07:59;;;;;;;17.25;3.63;;;19.90;76.70;;;;;;5068881;28;20025;-71
2022/09/07 16:10:25;;;;;;;11.02;3.60;;;19.90;76.60;;;;;;5067840;28;20021;-72
2022/09/07 16:12:52;;;;;;;16.52;3.80;;;19.80;76.40;;;;;;5067997;28;20017;-69
2022/09/07 16:15:18;;;;;;;15.57;3.40;;;19.80;76.70;;;;;;5067816;28;20103;-73
2022/09/07 16:17:47;;;;;;;11.10;3.55;;;19.80;76.90;;;;;;5068091;28;20424;-70
2022/09/07 16:20:14;;;;;;;13.85;3.88;;;19.70;77.40;;;;;;5067708;28;20052;-70
2022/09/07 16:22:40;;;;;;;18.55;4.82;;;19.80;77.90;;;;;;5073625;28;20020;-71
2022/09/07 16:25:07;;;;;;;18.33;5.07;;;19.70;77.50;;;;;;5061135;28;20017;-71
2022/09/07 16:27:33;;;;;;;15.15;3.08;;;19.70;77.40;;;;;;5069281;28;20013;-71
2022/09/07 16:30:00;;;;;;;16.45;3.83;;;19.60;77.40;;;;;;5067885;28;20055;-71
2022/09/07 16:32:26;;;;;;;14.43;3.78;;;19.60;77.50;;;;;;5070083;28;20598;-71
2022/09/07 16:34:53;;;;;;;15.10;5.30;;;19.50;77.50;;;;;;5073389;28;20017;-70
2022/09/07 16:37:19;;;;;;;20.88;4.95;;;19.50;77.60;;;;;;5070245;28;20131;-71
2022/09/07 16:39:46;;;;;;;14.00;4.15;;;19.40;77.90;;;;;;5070421;28;20035;-70
2022/09/07 16:42:12;;;;;;;11.20;3.45;;;19.40;78.20;;;;;;5071607;28;20079;-69
2022/09/07 16:44:38;;;;;;;15.43;3.63;;;19.40;78.60;;;;;;5069497;28;20123;-72
2022/09/07 16:47:06;;;;;;;21.00;5.43;;;19.30;78.60;;;;;;5070853;28;20056;-72
2022/09/07 16:49:33;;;;;;;56.03;29.92;;;19.30;78.60;;;;;;5071973;28;21199;-74
2022/09/07 16:51:59;;;;;;;40.67;20.48;;;19.30;78.60;;;;;;5072761;28;20111;-74
2022/09/07 16:54:26;;;;;;;20.45;8.45;;;19.20;79.20;;;;;;5071777;28;20510;-72
2022/09/07 16:56:52;;;;;;;14.23;4.72;;;19.30;79.90;;;;;;5072864;28;20017;-72
2022/09/07 16:59:24;;;;;;;20.20;5.18;;;19.20;78.60;;;;;;5071773;28;20063;-74
2022/09/07 17:01:51;;;;;;;33.15;12.95;;;19.00;78.70;;;;;;5058155;28;20035;-77
2022/09/07 17:04:18;;;;;;;27.05;14.20;;;18.80;79.60;;;;;;5070948;28;20056;-76
2022/09/07 17:06:45;;;;;;;23.20;10.18;;;18.80;80.30;;;;;;5072710;28;20008;-76
2022/09/07 17:09:13;;;;;;;20.55;7.05;;;18.80;80.50;;;;;;5071199;28;20497;-74
2022/09/07 17:11:40;;;;;;;19.98;6.47;;;18.80;80.50;;;;;;5069398;28;20032;-76
2022/09/07 17:14:06;;;;;;;11.85;4.97;;;18.80;80.40;;;;;;5069271;28;20034;-73
2022/09/07 17:16:39;;;;;;;20.35;5.65;;;18.80;80.20;;;;;;5069203;28;20735;-72
2022/09/07 17:19:45;;;;;;;20.00;4.53;;;18.80;80.10;;;;;;5072394;28;20082;-73
2022/09/07 17:22:51;;;;;;;13.43;3.70;;;18.80;80.10;;;;;;5071484;28;20116;-73
2022/09/07 17:25:18;;;;;;;;;;;18.80;79.80;;;;;;5074428;28;20021;-74
2022/09/07 17:27:45;;;;;;;16.00;3.95;;;18.80;79.60;;;;;;5071307;28;19908;-74
2022/09/07 17:30:13;;;;;;;29.65;8.30;;;18.80;79.70;;;;;;5071001;28;20020;-71
2022/09/07 17:32:39;;;;;;;17.85;7.00;;;18.80;80.60;;;;;;5071473;28;20031;-71
2022/09/07 17:35:06;;;;;;;17.55;6.78;;;18.80;81.10;;;;;;5071363;28;20017;-70
2022/09/07 17:37:33;;;;;;;24.65;12.80;;;18.90;81.70;;;;;;5071320;28;20056;-70
2022/09/07 17:39:59;;;;;;;19.27;8.75;;;18.90;82.00;;;;;;5070688;28;20040;-71
2022/09/07 17:42:27;;;;;;;12.90;5.97;;;18.90;82.10;;;;;;5069917;28;20125;-73
2022/09/07 17:44:53;;;;;;;14.25;5.10;;;18.90;82.20;;;;;;5072992;28;20451;-71
2022/09/07 17:47:20;;;;;;;9.60;3.83;;;18.80;82.80;;;;;;5070320;28;20048;-71
2022/09/07 17:49:46;;;;;;;15.13;4.70;;;18.80;82.00;;;;;;5071463;28;20016;-71
2022/09/07 17:52:13;;;;;;;12.50;4.43;;;18.80;81.80;;;;;;5073967;28;20144;-71
2022/09/07 17:54:39;;;;;;;13.18;5.03;;;18.80;81.50;;;;;;5070885;28;20020;-70
2022/09/07 17:57:06;;;;;;;15.90;4.68;;;18.70;81.20;;;;;;5071396;28;20543;-70
2022/09/07 17:59:33;;;;;;;35.85;16.25;;;18.70;80.60;;;;;;5071010;28;20387;-70
2022/09/07 18:01:59;;;;;;;22.88;13.27;;;18.60;80.70;;;;;;5071414;28;20031;-70
2022/09/07 18:04:26;;;;;;;17.33;7.43;;;18.60;81.10;;;;;;5071764;28;20472;-70
2022/09/07 18:06:53;;;;;;;14.32;5.88;;;18.60;81.00;;;;;;5071309;28;20498;-70
2022/09/07 18:09:20;;;;;;;19.33;5.05;;;18.60;80.80;;;;;;5069272;28;20024;-71
2022/09/07 18:11:46;;;;;;;15.40;5.32;;;18.60;80.70;;;;;;5073383;28;20394;-69
2022/09/07 18:14:13;;;;;;;9.90;3.67;;;18.50;80.60;;;;;;5068196;28;20463;-70
2022/09/07 18:16:40;;;;;;;12.20;5.10;;;18.50;80.60;;;;;;5073438;28;20020;-71
2022/09/07 18:19:07;;;;;;;17.75;4.30;;;18.50;80.60;;;;;;5069956;28;20027;-70
2022/09/07 18:21:35;;;;;;;9.35;4.20;;;18.50;80.60;;;;;;5070738;28;20043;-71
2022/09/07 18:24:17;;;;;;;11.38;4.07;;;18.50;80.50;;;;;;5069999;28;20025;-70
2022/09/07 18:26:44;;;;;;;14.57;4.18;;;18.50;80.50;;;;;;5072361;28;20024;-71
2022/09/07 18:29:11;;;;;;;13.75;2.83;;;18.40;80.60;;;;;;5070573;28;20468;-70
2022/09/07 18:31:37;;;;;;;14.52;4.22;;;18.50;80.70;;;;;;5070677;28;20474;-68
2022/09/07 18:34:04;;;;;;;23.65;11.52;;;18.40;80.70;;;;;;5069263;28;20020;-70
2022/09/07 18:36:32;;;;;;;25.98;13.73;;;18.50;80.80;;;;;;5070887;28;20738;-71
2022/09/07 18:39:03;;;;;;;19.85;10.60;;;18.50;81.10;;;;;;5068424;28;20031;-72
2022/09/07 18:41:29;;;;;;;17.38;7.28;;;18.50;81.20;;;;;;5069285;28;20445;-71
2022/09/07 18:43:56;;;;;;;14.75;5.07;;;18.40;81.20;;;;;;5066988;28;20020;-70
2022/09/07 18:46:24;;;;;;;11.57;3.58;;;18.40;81.30;;;;;;5069345;28;20023;-69
2022/09/07 18:48:52;;;;;;;10.88;3.28;;;18.40;81.40;;;;;;5068049;28;20153;-70
2022/09/07 18:51:19;;;;;;;13.50;3.00;;;18.40;81.40;;;;;;5065089;28;20032;-72
2022/09/07 18:53:46;;;;;;;10.20;3.40;;;18.40;81.40;;;;;;5069281;28;20017;-71
2022/09/07 18:56:14;;;;;;;10.10;3.30;;;18.40;81.50;;;;;;5065889;28;20222;-69
2022/09/07 18:58:42;;;;;;;16.20;4.85;;;18.40;81.60;;;;;;5068639;28;20114;-71
2022/09/07 19:01:11;;;;;;;10.68;3.40;;;18.40;81.70;;;;;;5068669;28;20355;-70
2022/09/07 19:03:38;;;;;;;25.02;12.50;;;18.40;81.70;;;;;;5068629;28;20017;-70
2022/09/07 19:06:08;;;;;;;34.60;22.15;;;18.40;81.70;;;;;;5072849;28;20104;-70
2022/09/07 19:08:37;;;;;;;21.05;11.55;;;18.40;81.70;;;;;;5068384;28;20029;-71
2022/09/07 19:11:16;;;;;;;22.13;6.25;;;18.40;81.90;;;;;;5069628;28;20027;-72
2022/09/07 19:13:43;;;;;;;12.80;4.82;;;18.40;82.20;;;;;;5068285;28;20093;-71
2022/09/07 19:16:12;;;;;;;14.63;4.85;;;18.30;82.30;;;;;;5069523;28;20032;-72
2022/09/07 19:19:05;;;;;;;8.93;3.20;;;18.30;82.30;;;;;;5068027;28;20032;-73
2022/09/07 19:21:37;;;;;;;18.92;5.65;;;18.30;82.40;;;;;;5066650;28;20060;-70
2022/09/07 19:24:17;;;;;;;14.80;4.70;;;18.30;82.40;;;;;;5069272;28;20024;-69
2022/09/07 19:26:46;;;;;;;17.70;4.45;;;18.30;82.50;;;;;;5069212;28;20111;-70
2022/09/07 19:29:15;;;;;;;13.98;3.67;;;18.30;82.70;;;;;;5070483;28;20016;-71
2022/09/07 19:31:45;;;;;;;23.63;5.55;;;18.20;82.80;;;;;;5071328;28;20035;-70
2022/09/07 19:34:12;;;;;;;20.20;8.50;;;18.20;82.90;;;;;;5068651;28;20024;-71
2022/09/07 19:36:39;;;;;;;22.05;10.18;;;18.20;82.90;;;;;;5071300;28;20526;-70
2022/09/07 19:39:05;;;;;;;18.30;7.03;;;18.20;82.90;;;;;;5067242;28;20069;-70
2022/09/07 19:41:33;;;;;;;12.27;4.65;;;18.20;83.00;;;;;;5069612;28;20047;-71
2022/09/07 19:44:00;;;;;;;12.45;4.35;;;18.20;83.00;;;;;;5065179;28;20017;-75
2022/09/07 19:46:26;;;;;;;10.68;3.70;;;18.20;83.00;;;;;;5067430;28;20055;-71
2022/09/07 19:48:55;;;;;;;8.85;3.28;;;18.20;83.70;;;;;;5067303;28;20937;-70
2022/09/07 19:51:21;;;;;;;16.13;5.30;;;18.20;83.20;;;;;;5065644;28;20498;-70
2022/09/07 19:53:48;;;;;;;15.90;7.38;;;18.20;83.30;;;;;;5068698;28;20482;-70
2022/09/07 19:56:20;;;;;;;23.50;11.90;;;18.20;83.30;;;;;;5067549;28;20017;-69